createdAt,value
2019-05-16T00:01:44.027Z,10.90
2019-05-16T00:04:12.502Z,10.90
2019-05-16T00:06:40.978Z,10.80
2019-05-16T00:09:09.422Z,10.80
2019-05-16T00:11:58.104Z,10.70
2019-05-16T00:14:28.173Z,10.70
2019-05-16T00:16:58.780Z,10.60
2019-05-16T00:19:28.751Z,10.50
2019-05-16T00:21:58.099Z,10.40
2019-05-16T00:24:29.003Z,10.40
2019-05-16T00:26:58.007Z,10.40
2019-05-16T00:29:27.738Z,10.40
2019-05-16T00:31:58.043Z,10.30
2019-05-16T00:34:27.942Z,10.30
2019-05-16T00:36:58.217Z,10.20
2019-05-16T00:39:28.094Z,10.20
2019-05-16T00:41:58.422Z,10.20
2019-05-16T00:44:28.145Z,10.10
2019-05-16T00:46:58.131Z,10.10
2019-05-16T00:49:28.059Z,10.10
2019-05-16T00:51:58.476Z,10.10
2019-05-16T00:54:27.798Z,9.90
2019-05-16T00:56:57.788Z,9.90
2019-05-16T00:59:27.659Z,9.80
2019-05-16T01:01:58.625Z,9.70
2019-05-16T01:04:28.727Z,9.70
2019-05-16T01:06:58.498Z,9.60
2019-05-16T01:09:28.251Z,9.70
2019-05-16T01:11:57.955Z,9.60
2019-05-16T01:14:28.255Z,9.70
2019-05-16T01:16:58.146Z,9.70
2019-05-16T01:19:27.819Z,9.80
2019-05-16T01:21:58.822Z,9.90
2019-05-16T01:24:26.623Z,9.90
2019-05-16T01:26:57.742Z,9.90
2019-05-16T01:29:28.073Z,9.90
2019-05-16T01:31:56.105Z,9.90
2019-05-16T01:34:24.585Z,9.90
2019-05-16T01:36:53.057Z,9.90
2019-05-16T01:39:21.605Z,9.80
2019-05-16T01:41:50.041Z,9.80
2019-05-16T01:44:18.508Z,9.80
2019-05-16T01:46:48.093Z,9.80
2019-05-16T01:49:18.698Z,9.90
2019-05-16T01:51:48.425Z,9.80
2019-05-16T01:54:17.996Z,9.80
2019-05-16T01:56:48.105Z,9.90
2019-05-16T01:59:18.142Z,9.80
2019-05-16T02:01:49.503Z,9.80
2019-05-16T02:04:18.465Z,9.90
2019-05-16T02:06:54.184Z,9.90
2019-05-16T02:09:18.929Z,9.90
2019-05-16T02:12:10.414Z,9.80
2019-05-16T02:14:38.745Z,9.80
2019-05-16T02:17:10.868Z,9.80
2019-05-16T02:19:38.517Z,9.80
2019-05-16T02:22:08.934Z,9.90
2019-05-16T02:24:38.785Z,9.90
2019-05-16T02:27:09.524Z,9.90
2019-05-16T02:29:39.971Z,9.90
2019-05-16T02:32:11.436Z,9.90
2019-05-16T03:08:07.590Z,10.20
2019-05-16T03:17:50.765Z,10.30
2019-05-16T03:37:14.327Z,10.30
2019-05-16T03:47:45.334Z,10.40
2019-05-16T04:01:02.579Z,10.50
2019-05-16T04:04:25.987Z,10.50
2019-05-16T04:10:35.210Z,10.50
2019-05-16T04:23:16.957Z,10.60
2019-05-16T04:25:52.611Z,10.60
2019-05-16T04:35:21.128Z,10.80
2019-05-16T04:54:45.689Z,10.60
2019-05-16T05:13:33.167Z,10.80
2019-05-16T05:16:05.028Z,10.90
2019-05-16T05:18:42.851Z,10.90
2019-05-16T05:21:25.031Z,11.00
2019-05-16T05:30:59.540Z,11.40
2019-05-16T05:37:20.489Z,11.70
2019-05-16T05:40:20.197Z,11.90
2019-05-16T05:43:25.500Z,12.10
2019-05-16T05:46:01.477Z,12.30
2019-05-16T05:52:23.612Z,12.60
2019-05-16T05:55:51.963Z,12.80
2019-05-16T06:07:30.366Z,13.10
2019-05-16T06:10:11.852Z,13.10
2019-05-16T06:15:47.637Z,13.30
2019-05-16T06:21:11.232Z,13.20
2019-05-16T06:26:50.463Z,13.20
2019-05-16T06:38:54.822Z,13.60
2019-05-16T06:41:31.638Z,13.70
2019-05-16T06:44:20.247Z,13.80
2019-05-16T06:54:00.520Z,13.90
2019-05-16T06:56:41.608Z,13.90
2019-05-16T06:59:22.306Z,13.90
2019-05-16T07:01:57.242Z,13.90
2019-05-16T07:04:56.680Z,13.90
2019-05-16T07:07:25.153Z,13.80
2019-05-16T07:10:27.472Z,13.70
2019-05-16T07:12:50.430Z,13.60
2019-05-16T07:18:10.826Z,13.50
2019-05-16T07:20:47.793Z,13.40
2019-05-16T07:23:59.757Z,13.40
2019-05-16T07:26:36.884Z,13.50
2019-05-16T07:29:11.954Z,13.80
2019-05-16T07:34:36.116Z,14.90
2019-05-16T07:50:12.399Z,15.70
2019-05-16T07:58:31.345Z,15.80
2019-05-16T08:01:07.801Z,15.90
2019-05-16T08:03:44.165Z,15.80
2019-05-16T08:06:24.430Z,15.80
2019-05-16T08:08:56.114Z,15.80
2019-05-16T08:11:29.864Z,15.80
2019-05-16T08:14:01.902Z,15.70
2019-05-16T08:16:40.846Z,15.70
2019-05-16T08:19:10.788Z,15.90
2019-05-16T08:21:41.138Z,15.90
2019-05-16T08:24:15.509Z,15.80
2019-05-16T08:26:47.612Z,15.80
2019-05-16T08:29:16.949Z,16.00
2019-05-16T08:31:45.738Z,16.20
2019-05-16T08:34:20.612Z,16.80
2019-05-16T08:36:51.935Z,17.40
2019-05-16T08:39:33.003Z,17.20
2019-05-16T08:42:08.122Z,17.00
2019-05-16T08:47:25.917Z,18.30
2019-05-16T08:49:56.611Z,19.10
2019-05-16T08:55:03.471Z,18.40
2019-05-16T08:57:41.131Z,17.80
2019-05-16T09:02:44.095Z,17.30
2019-05-16T09:05:14.045Z,17.20
2019-05-16T09:07:49.145Z,17.10
2019-05-16T09:10:30.561Z,18.80
2019-05-16T09:10:34.907Z,17.40
2019-05-16T09:12:50.072Z,17.20
2019-05-16T09:15:19.091Z,17.00
2019-05-16T09:17:51.167Z,16.90
2019-05-16T09:20:22.775Z,16.80
2019-05-16T09:22:53.371Z,16.60
2019-05-16T09:25:30.829Z,16.50
2019-05-16T09:28:02.917Z,16.50
2019-05-16T09:30:39.003Z,16.70
2019-05-16T09:33:11.117Z,16.90
2019-05-16T09:38:23.783Z,17.00
2019-05-16T09:40:52.511Z,16.90
2019-05-16T09:43:59.590Z,16.60
2019-05-16T09:46:30.042Z,16.60
2019-05-16T09:49:40.419Z,16.50
2019-05-16T09:52:26.927Z,16.40
2019-05-16T09:54:53.251Z,16.60
2019-05-16T09:57:40.313Z,16.50
2019-05-16T10:00:18.055Z,16.70
2019-05-16T10:05:52.184Z,17.00
2019-05-16T10:08:26.998Z,17.20
2019-05-16T10:11:02.014Z,17.40
2019-05-16T10:16:16.836Z,17.60
2019-05-16T10:18:47.586Z,17.40
2019-05-16T10:21:20.614Z,17.40
2019-05-16T10:23:48.594Z,17.40
2019-05-16T10:26:19.403Z,18.00
2019-05-16T10:28:50.588Z,18.70
2019-05-16T10:31:38.568Z,18.90
2019-05-16T10:33:58.093Z,19.30
2019-05-16T10:36:28.103Z,19.40
2019-05-16T10:38:59.123Z,19.80
2019-05-16T10:41:27.270Z,20.20
2019-05-16T10:43:56.814Z,20.70
2019-05-16T10:46:27.008Z,21.20
2019-05-16T10:48:57.767Z,21.90
2019-05-16T10:51:26.966Z,22.40
2019-05-16T10:54:08.938Z,22.60
2019-05-16T10:56:29.266Z,22.30
2019-05-16T10:59:35.040Z,22.20
2019-05-16T11:01:38.514Z,22.80
2019-05-16T11:04:07.621Z,23.70
2019-05-16T11:06:37.228Z,23.90
2019-05-16T11:09:11.192Z,24.20
2019-05-16T11:11:39.765Z,24.40
2019-05-16T11:14:11.688Z,24.50
2019-05-16T11:16:40.472Z,24.70
2019-05-16T11:19:17.920Z,25.10
2019-05-16T11:21:39.534Z,25.00
2019-05-16T11:24:12.938Z,24.80
2019-05-16T11:26:51.995Z,25.20
2019-05-16T11:29:25.386Z,25.10
2019-05-16T11:35:20.384Z,25.20
2019-05-16T11:37:51.920Z,25.30
2019-05-16T11:40:21.154Z,25.10
2019-05-16T11:43:05.480Z,25.20
2019-05-16T11:45:27.536Z,25.00
2019-05-16T11:55:01.232Z,24.90
2019-05-16T11:57:34.151Z,24.70
2019-05-16T12:00:32.162Z,24.50
2019-05-16T12:03:06.625Z,24.50
2019-05-16T12:08:48.088Z,24.90
2019-05-16T12:11:28.012Z,25.10
2019-05-16T12:17:36.352Z,24.90
2019-05-16T12:20:11.165Z,25.00
2019-05-16T12:22:39.716Z,25.50
2019-05-16T12:25:31.559Z,25.70
2019-05-16T12:28:00.079Z,26.00
2019-05-16T12:30:28.590Z,26.20
2019-05-16T12:32:58.199Z,26.60
2019-05-16T12:35:27.704Z,26.70
2019-05-16T12:37:57.039Z,26.60
2019-05-16T12:40:26.841Z,26.80
2019-05-16T12:42:57.295Z,27.10
2019-05-16T12:45:42.113Z,27.20
2019-05-16T12:47:59.634Z,27.00
2019-05-16T12:50:29.078Z,26.30
2019-05-16T12:52:58.032Z,25.70
2019-05-16T12:55:30.392Z,26.30
2019-05-16T12:58:12.653Z,26.90
2019-05-16T13:00:32.127Z,27.40
2019-05-16T13:03:00.979Z,27.70
2019-05-16T13:05:29.467Z,28.20
2019-05-16T13:07:57.941Z,28.70
2019-05-16T13:10:27.125Z,29.20
2019-05-16T13:12:58.014Z,29.10
2019-05-16T13:15:27.328Z,28.60
2019-05-16T13:18:09.394Z,27.80
2019-05-16T13:20:47.956Z,27.10
2019-05-16T13:23:18.275Z,26.60
2019-05-16T13:25:48.135Z,25.90
2019-05-16T13:28:17.106Z,25.50
2019-05-16T13:30:47.895Z,25.10
2019-05-16T13:33:17.717Z,24.60
2019-05-16T13:35:47.133Z,24.20
2019-05-16T13:38:17.403Z,23.70
2019-05-16T13:40:46.304Z,23.70
2019-05-16T13:43:17.256Z,23.70
2019-05-16T13:45:47.214Z,23.60
2019-05-16T13:48:39.741Z,23.60
2019-05-16T13:51:14.840Z,23.90
2019-05-16T13:53:38.523Z,24.40
2019-05-16T13:56:12.519Z,24.00
2019-05-16T13:58:37.601Z,23.80
2019-05-16T14:01:07.822Z,24.00
2019-05-16T14:03:38.006Z,23.80
2019-05-16T14:06:07.236Z,24.10
2019-05-16T14:08:37.360Z,24.30
2019-05-16T14:11:10.214Z,24.10
2019-05-16T14:13:37.670Z,24.20
2019-05-16T14:16:07.235Z,24.30
2019-05-16T14:18:43.265Z,24.20
2019-05-16T14:21:09.337Z,23.80
2019-05-16T14:23:40.918Z,23.50
2019-05-16T14:26:09.465Z,23.60
2019-05-16T14:28:39.750Z,23.90
2019-05-16T14:31:08.711Z,23.60
2019-05-16T14:33:37.308Z,23.40
2019-05-16T14:36:07.424Z,23.30
2019-05-16T14:44:53.294Z,22.20
2019-05-16T14:47:07.013Z,22.00
2019-05-16T14:49:43.561Z,21.70
2019-05-16T14:52:21.139Z,21.50
2019-05-16T14:54:49.918Z,21.20
2019-05-16T14:57:18.618Z,20.90
2019-05-16T15:00:00.947Z,20.50
2019-05-16T15:03:07.917Z,20.30
2019-05-16T15:05:42.509Z,20.10
2019-05-16T15:08:18.984Z,20.00
2019-05-16T15:10:51.944Z,19.90
2019-05-16T15:13:20.694Z,19.80
2019-05-16T15:15:56.939Z,19.60
2019-05-16T15:21:26.586Z,19.50
2019-05-16T15:23:59.363Z,19.50
2019-05-16T15:26:27.233Z,19.40
2019-05-16T15:28:58.887Z,19.30
2019-05-16T15:31:39.494Z,19.40
2019-05-16T15:34:17.755Z,19.50
2019-05-16T15:36:47.782Z,19.60
2019-05-16T15:39:17.065Z,19.50
2019-05-16T15:42:01.080Z,19.40
2019-05-16T15:44:29.895Z,19.40
2019-05-16T15:47:03.033Z,19.30
2019-05-16T15:49:33.214Z,19.10
2019-05-16T15:52:07.351Z,18.80
2019-05-16T15:58:09.780Z,18.50
2019-05-16T16:00:43.016Z,18.40
2019-05-16T16:03:12.684Z,18.30
2019-05-16T16:05:41.311Z,18.20
2019-05-16T16:08:17.862Z,18.20
2019-05-16T16:11:07.326Z,18.00
2019-05-16T16:13:37.369Z,18.10
2019-05-16T16:16:10.030Z,18.00
2019-05-16T16:18:37.657Z,18.00
2019-05-16T16:21:12.642Z,18.00
2019-05-16T16:23:41.216Z,18.00
2019-05-16T16:26:11.620Z,17.90
2019-05-16T16:28:40.116Z,17.90
2019-05-16T16:31:08.569Z,17.80
2019-05-16T16:33:37.628Z,17.80
2019-05-16T16:36:07.810Z,17.70
2019-05-16T16:38:39.249Z,17.50
2019-05-16T16:41:09.903Z,17.50
2019-05-16T16:43:41.228Z,17.50
2019-05-16T16:46:13.441Z,17.50
2019-05-16T16:48:40.130Z,17.40
2019-05-16T16:51:08.753Z,17.20
2019-05-16T16:53:37.961Z,17.00
2019-05-16T16:56:09.972Z,16.90
2019-05-16T16:58:38.431Z,16.90
2019-05-16T17:01:07.479Z,16.60
2019-05-16T17:03:36.472Z,16.50
2019-05-16T17:06:07.171Z,16.50
2019-05-16T17:08:37.383Z,16.50
2019-05-16T17:11:10.766Z,16.50
2019-05-16T17:13:39.902Z,16.50
2019-05-16T17:16:22.011Z,16.50
2019-05-16T17:18:57.854Z,16.60
2019-05-16T17:21:30.554Z,16.60
2019-05-16T17:24:00.570Z,16.50
2019-05-16T17:26:33.360Z,16.70
2019-05-16T17:29:21.982Z,16.50
2019-05-16T17:31:56.032Z,16.60
2019-05-16T17:34:26.705Z,16.60
2019-05-16T17:37:13.741Z,16.50
2019-05-16T17:39:58.743Z,16.50
2019-05-16T17:42:28.109Z,16.40
2019-05-16T17:44:56.702Z,16.40
2019-05-16T17:47:36.875Z,16.30
2019-05-16T17:51:17.570Z,16.40
2019-05-16T17:53:46.525Z,16.40
2019-05-16T17:56:27.285Z,16.10
2019-05-16T17:59:11.221Z,16.00
2019-05-16T18:01:46.210Z,15.80
2019-05-16T18:04:22.519Z,15.50
2019-05-16T18:06:57.556Z,15.50
2019-05-16T18:09:27.812Z,15.60
2019-05-16T18:12:08.554Z,15.70
2019-05-16T18:14:52.061Z,15.60
2019-05-16T18:17:26.897Z,15.70
2019-05-16T18:23:03.901Z,15.80
2019-05-16T18:25:36.524Z,15.80
2019-05-16T18:28:12.126Z,15.70
2019-05-16T18:34:00.798Z,15.70
2019-05-16T18:37:38.093Z,15.60
2019-05-16T18:39:15.221Z,15.60
2019-05-16T18:41:47.178Z,15.60
2019-05-16T18:44:28.672Z,15.60
2019-05-16T18:47:21.484Z,15.60
2019-05-16T18:50:22.166Z,15.60
2019-05-16T18:53:01.743Z,15.60
2019-05-16T18:58:57.190Z,15.50
2019-05-16T19:01:46.953Z,15.30
2019-05-16T19:04:41.618Z,15.30
2019-05-16T19:07:07.970Z,15.20
2019-05-16T19:16:16.966Z,15.10
2019-05-16T19:21:50.770Z,15.10
2019-05-16T19:33:12.400Z,14.90
2019-05-16T19:35:43.576Z,14.90
2019-05-16T19:38:26.548Z,14.70
2019-05-16T19:41:22.146Z,14.50
2019-05-16T19:43:51.213Z,14.40
2019-05-16T19:46:19.670Z,14.20
2019-05-16T19:48:50.980Z,14.20
2019-05-16T19:51:19.588Z,14.10
2019-05-16T19:53:56.439Z,13.90
2019-05-16T19:57:14.221Z,13.80
2019-05-16T19:58:59.658Z,13.90
2019-05-16T20:01:28.498Z,13.90
2019-05-16T20:04:03.236Z,13.80
2019-05-16T20:06:43.680Z,13.80
2019-05-16T20:09:52.510Z,13.80
2019-05-16T20:12:21.326Z,13.90
2019-05-16T20:14:49.928Z,13.90
2019-05-16T20:23:56.759Z,13.70
2019-05-16T20:26:27.333Z,13.70
2019-05-16T20:28:59.539Z,13.60
2019-05-16T20:31:27.877Z,13.50
2019-05-16T20:34:51.466Z,13.40
2019-05-16T20:37:22.904Z,13.40
2019-05-16T20:39:51.787Z,13.30
2019-05-16T20:42:20.832Z,13.10
2019-05-16T20:44:54.042Z,13.00
2019-05-16T20:57:43.310Z,12.90
2019-05-16T21:04:22.375Z,12.80
2019-05-16T21:16:33.404Z,12.70
2019-05-16T21:19:10.881Z,12.70
2019-05-16T21:36:07.203Z,12.30
2019-05-16T21:39:14.358Z,12.30
2019-05-16T21:44:59.343Z,12.30
2019-05-16T22:13:59.340Z,12.30
2019-05-16T22:16:33.162Z,12.30
2019-05-16T22:29:40.581Z,12.20
2019-05-16T22:32:09.374Z,12.20
2019-05-16T22:34:37.921Z,12.10
2019-05-16T22:37:17.690Z,12.10
2019-05-16T22:39:46.411Z,12.10
2019-05-16T22:42:28.516Z,12.10
2019-05-16T22:45:01.789Z,12.10
2019-05-16T22:47:30.267Z,12.10
2019-05-16T22:50:07.432Z,11.90
2019-05-16T22:52:36.772Z,11.90
2019-05-16T22:55:09.964Z,11.90
2019-05-16T22:58:21.726Z,11.90
2019-05-16T23:04:56.814Z,11.90
2019-05-16T23:10:38.118Z,11.70
2019-05-16T23:13:43.258Z,11.60
2019-05-16T23:36:17.509Z,11.50
2019-05-16T23:46:00.258Z,11.60
2019-05-16T23:48:33.621Z,11.50
